dinsdag 4 augustus 2020 | Home | Bestenlijsten | Bestenlijsten NL | Calculators | Nieuws | Records | Uitslagen | Wedstrijden | VZA Ranglijsten | Weer |
 
Recent nieuws meer nieuws
18-07: Ramses Bekkenk blijkt al ruim 20 jaar Zeeuws recordhouder op 3000m/3000m steeple
20-06: Staf Dobbelaere: een schaap met vijf poten?
09-06: Woordenstrijd zonder koek
02-06: Terugblik op het NK marathon 1964 in Vlissingen
28-05: Is snelheid een relatief begrip? Maar dan op herhaling
19-05: Snelheid een relatief begrip?
Wedstrijdagenda meer wedstrijden
vr 07-08: Hardloop3Daagse Neeltje Jans
vr 07-08: 3e Track Meeting Utrecht
vr 21-08: Summer Run Vlissingen
za 29-08: NK baan Senioren Utrecht
Recente uitslagen
  meer uitslagen
wo 22-07: Welcome Back! Vlissingen
 
Zoek tenminste met 3 tekens van wedstrijd, datum, plaats of atleet

44e Mosselloop

Westenschouwen, zaterdag 12 november 2011 - Organisatie: Delta Sport
8.05 km
PltsNaam
Tijdkm/umin/kmm/secgap
1  Tim PleijteDynamica27.56minMse   17.291  3:284.80-
2  Ruben ScheurwaterParthenon27.57minMse   17.281  3:284.80+0:01
3  Pascal van TroostHaag Atletiek28.40minMse   16.849  3:344.68+0:44
4  Michel van der KleinPAC29.29minM35   16.382  3:404.55+1:33
5  Ronnie OvergaauwDynamica29.41minMse   16.272  3:414.52+1:45
6  Wim NieuwkerkTHOR29.55minMse   16.145  3:434.48+1:59
7  Floris WilleboordseDynamica30.39minMse   15.759  3:484.38+2:43
8  Tim van den BroekeDynamica31.05minMse   15.539  3:524.32+3:09
9  Joop HelbersPallas '9331.25minM35   15.374  3:544.27+3:29
10  Michael RaaijmakersParthenon31.30minM35   15.333  3:554.26+3:34
11  Wim van SparrentakDynamica31.38minM40   15.269  3:564.24+3:42
12  Marco GeldofDynamica31.48minM45   15.189  3:574.22+3:52
13  Henri HavingaAV4032.13minM50   14.992  4:004.16+4:17
14  Ruud WoordTHOR32.16minM50   14.969  4:004.16+4:20
15  Michel van den BosDelta Sport32.24minM45   14.907  4:014.14+4:28
16  Erwin HarmesDynamica32.31minMse   14.854  4:024.13+4:35
17  Eric WolfertSommelsdijk32.36minMse   14.816  4:034.12+4:40
18  Arjan BeijeDelta Sport32.37minM40   14.808  4:034.11+4:41
19  Anjolie EngelsDynamica32.50minV35   14.711  4:054.09+4:54
20  Adriaan van KeulenMiddelburg32.52minMse   14.696  4:054.08+4:56
21  Karel van de GruiterDynamica32.56minM35   14.666  4:054.07+5:00
22  Leo van der HoevenSpirit32.57minM50   14.659  4:064.07+5:01
23  Bart VerkaartDelta Sport33.03minM40   14.614  4:064.06+5:07
24  Peter van LimbergenAV'5633.05minM35   14.599  4:074.06+5:09
25  Robbert MeeuwseAV'5633.06minMse   14.592  4:074.05+5:10
26  Sebastiaan HeikoopDelta Sport33.20minM40   14.490  4:084.03+5:24
27  Edwin StolkSommelsdijk33.28minM35   14.432  4:094.01+5:32
28  Jan GuiljamWemeldinge33.40minM50   14.347  4:113.99+5:44
29  Laurent van NieuwenhuijzeAV'5633.47minMse   14.297  4:123.97+5:51
30  Marius BesuijenDynamica33.58minM50   14.220  4:133.95+6:02
31  Martin PruijsersDynamica34.18minM40   14.082  4:163.91+6:22
32  Rian van den BroekeDynamica34.22minM50   14.054  4:163.90+6:26
33  Crum van der LindenDynamica34.32minMse   13.986  4:173.89+6:36
34  Cees DijkmanBurgh-Haamstede34.42minM40   13.919  4:193.87+6:46
35  Jan van BennekomSpirit34.54minM50   13.840  4:203.84+6:58
36  Danny de LeeuwAV'5634.55minMse   13.833  4:203.84+6:59
37  Piet van MourikDelta Sport35.02minM45   13.787  4:213.83+7:06
38  Ron HuizerLoopgroep Aart Stigt35.18minM50   13.683  4:233.80+7:22
39  Archie StaalDelta Sport35.27minM45   13.625  4:243.78+7:31
40  Giel JoziasseAV'5635.34minM50   13.580  4:253.77+7:38
41  Michel BekinkAV'5635.36minM35   13.567  4:253.77+7:40
42  Jos GelukDelta Sport36.02minM50   13.404  4:293.72+8:06
43  Fer BouwensAV'5636.21minM50   13.287  4:313.69+8:25
44  Kees LouwsMiddelburg36.24minM35   13.269  4:313.69+8:28
45  Bart de VisserSerooskerke36.25minMse   13.263  4:313.68+8:29
46  Marijke de VisserDynamica36.26minVse   13.257  4:323.68+8:30
47  Pieter Jan FiooleZierikzee36.27minMse   13.251  4:323.68+8:31
48  Henk LousDynamica36.30minM50   13.233  4:323.68+8:34
49  Tim TaylorDiomedon36.37minM50   13.191  4:333.66+8:41
50  Nico van den BosPassaat36.40minM60   13.173  4:333.66+8:44
51  Pieter SturmOost-Souburg36.45minM35   13.143  4:343.65+8:49
52  Wim DerksParthenon36.45minM50   13.143  4:343.65+8:49
53  Alex de LanlenSpirit36.49minM45   13.119  4:343.64+8:53
54  Peter KaljouwavVN36.51minM50   13.107  4:353.64+8:55
55  Edwin RuppertVlissingen36.53minM40   13.095  4:353.64+8:57
56  Bram MourikSommelsdijk36.55minM50   13.084  4:353.63+8:59
57  Christian MonnaSpijkenisse37.01minMse   13.048  4:363.62+9:05
58  Charles HoeboerPAC37.03minMse   13.036  4:363.62+9:07
59  Wim WoutersAV'5637.03minM55   13.036  4:363.62+9:07
60  Bart van NoordenYerseke37.06minM45   13.019  4:373.62+9:10
61  Jan van GentSpirit37.09minM50   13.001  4:373.61+9:13
62  Kees den HollanderAagtekerke37.18minM40   12.949  4:383.60+9:22
63  Perry van den BergeNieuwe-Tonge37.23minM40   12.920  4:393.59+9:27
64  Lennaert den HoedParthenon37.33minMse   12.863  4:403.57+9:37
65  Leon de MunnikDelta Sport37.36minM40   12.846  4:403.57+9:40
66  John RosmolenSpirit37.42minM55   12.812  4:413.56+9:46
67  Rudi RaviaDelta Sport37.46minM55   12.789  4:413.55+9:50
68  ??37.47minMse   12.783  4:423.55+9:51
69  Peter VaderDelta Sport37.55minM50   12.738  4:433.54+9:59
70  Robert VerwijsDelta Sport37.59minM35   12.716  4:433.53+10:03
71  Jos PutVlissingen38.05minM45   12.683  4:443.52+10:09
72  Ron DellebekeDynamica38.09minM50   12.661  4:443.52+10:13
73  Ad SuijkerbuijkDiomedon38.16minM50   12.622  4:453.51+10:20
74  Kees SturmVlissingen38.19minMse   12.605  4:463.50+10:23
75  Steef RosmolenSpirit38.22minMse   12.589  4:463.50+10:26
76  Maurice JacobseDynamica38.24minMse   12.578  4:463.49+10:28
77  Eric RennertPassaat38.26minM50   12.567  4:463.49+10:30
78  Robert SonkeMiddelburg38.28minM40   12.556  4:473.49+10:32
79  Rinus WitteDynamica38.32minM50   12.535  4:473.48+10:36
80  Jan Diederik KuikenPAC38.33minMse   12.529  4:473.48+10:37
81  John KommerDelta Sport38.46minM40   12.459  4:493.46+10:50
82  Jack SuijkerbuijkDiomedon38.48minM50   12.448  4:493.46+10:52
83  Leo DaleboutDynamica38.50minM50   12.438  4:493.45+10:54
84  Geert FranckeVlissingen38.51minMse   12.432  4:503.45+10:55
85  Robert KraaijenbrinkDelta Sport38.52minM45   12.427  4:503.45+10:56
86  Adriaan OtteOosterland38.58minMse   12.395  4:503.44+11:02
87  Wim TempelaarDynamica39.00minM60   12.385  4:513.44+11:04
88  Annemiek van de VeldeDelta Sport39.01minVse   12.379  4:513.44+11:05
89  Sjaak BrouwerDynamica39.03minM45   12.369  4:513.44+11:07
90  Wim de JongeAV'5639.05minM60   12.358  4:513.43+11:09
91  Johan de VliegerDynamica39.06minM50   12.353  4:513.43+11:10
92  Annet van der LindeAV'5639.08minV40   12.342  4:523.43+11:12
93  Laurey van den BergeNieuwe-Tonge39.16minVse   12.301  4:533.42+11:20
94  Leonie TonDelta Sport39.21minV35   12.274  4:533.41+11:25
95  Sven VermeulenVlissingen39.30minM35   12.228  4:543.40+11:34
96  Werner den ExterVlissingen39.31minM45   12.223  4:553.40+11:35
97  Ad StraubAV '4039.35minM45   12.202  4:553.39+11:39
98  Leo de RijkeVlissingen39.42minM45   12.166  4:563.38+11:46
99  Hans HegemanSalland39.50minM50   12.126  4:573.37+11:54
100  Mirte van der WelPAC39.52minVse   12.115  4:573.37+11:56
101  Wilbert KooleDynamica39.53minM35   12.110  4:573.36+11:57
102  Coen de DanschutterDelta Sport39.55minMse   12.100  4:583.36+11:59
103  Anita JoziasseAV'5640.00minV50   12.075  4:583.35+12:04
104  Gertjan de HoopBurgh-Haamstede40.02minM40   12.065  4:583.35+12:06
105  Joop LasseurDelta Sport40.04minM70   12.055  4:593.35+12:08
106  Ronald van DongenDelta Sport40.06minM40   12.045  4:593.35+12:10
107  John GuequierreDynamica40.09minM60   12.030  4:593.34+12:13
108  Jeanine van OverveldTHOR40.10minV50   12.025  4:593.34+12:14
109  Renate de WildeWilhelminadorp40.13minVse   12.010  5:003.34+12:17
110  Marco DielemanSommelsdijk40.15minM40   12.000  5:003.33+12:19
111  P.A.C.M. SuijkerbuijkDiomedon40.17minM55   11.990  5:003.33+12:21
112  Andre CrucqDynamica40.22minM60   11.965  5:013.32+12:26
113  Martin KempeDelta Sport40.31minM35   11.921  5:023.31+12:35
114  Martin de VisserMiddelburg40.39minM45   11.882  5:033.30+12:43
115  Arjen de VosDelta Sport40.40minM45   11.877  5:033.30+12:44
116  Peter de HaasScorpio40.40minM50   11.877  5:033.30+12:44
117  Arno ObbinkBurgh-Haamstede40.55minM35   11.804  5:053.28+12:59
118  Dennis BaggermanZaltbommel40.56minMse   11.800  5:053.28+13:00
119  Isabel LousDynamica40.59minVse   11.785  5:053.27+13:03
120  John ScheffersDelta Sport41.07minM50   11.747  5:063.26+13:11
121  Ruud Fredrikss-Heerenhoek41.08minM55   11.742  5:073.26+13:12
122  Jack SmitsDynamica41.11minM50   11.728  5:073.26+13:15
123  Peter WitkamWaterweg41.14minM55   11.714  5:073.25+13:18
124  Han van AchterbergAmsterdam41.19minM50   11.690  5:083.25+13:23
125  Rene de VoogdMiddelburg41.20minM45   11.685  5:083.25+13:24
126  Adri KooleDynamica41.23minM60   11.671  5:083.24+13:27
127  Wim RooseGoes41.25minM60   11.662  5:093.24+13:29
128  Ruth StolkSommelsdijk41.27minVse   11.653  5:093.24+13:31
129  Tanja de Jong-KortusSpirit41.29minV45   11.643  5:093.23+13:33
130  Monique RaaijmakersParthenon41.32minV35   11.629  5:103.23+13:36
131  Jan de JongParthenon41.33minM60   11.625  5:103.23+13:37
132  Jan BostelaarDynamica41.35minM60   11.615  5:103.23+13:39
133  Bas de NooijerKoudekerke41.44minMse   11.573  5:113.21+13:48
134  Wilco MeijeringVlissingen41.50minM40   11.546  5:123.21+13:54
135  Arie van der LeeSalland41.55minM45   11.523  5:123.20+13:59
136  Noël PeetersSalland41.57minM45   11.514  5:133.20+14:01
137  Jan Van EijkenSommelsdijk42.01minM60   11.495  5:133.19+14:05
138  Ingrid KoeneAV'5642.08minV45   11.464  5:143.18+14:12
139  Erwin SchellDelta Sport42.14minM50   11.436  5:153.18+14:18
140  Co de FeijterDelta Sport42.22minM45   11.400  5:163.17+14:26
141  Martin van NieulandeNieuw- en Sint Joosland42.27minM45   11.378  5:163.16+14:31
142  Kobus BotmanDynamica42.35minM60   11.342  5:173.15+14:39
143  Paola van GilstAV'5642.48minV35   11.285  5:193.13+14:52
144  Piet BeijerDynamica43.04minM60   11.215  5:213.12+15:08
145  Rinus JoosseAV'5643.04minM70   11.215  5:213.12+15:08
146  Roy KieftenbeldRaalte43.06minMse   11.206  5:213.11+15:10
147  Bart MonsterZuidland43.10minM60   11.189  5:223.11+15:14
148  Harrie HaarmanSalland43.17minM55   11.159  5:233.10+15:21
149  Marloes PriemisRenesse43.18minVse   11.155  5:233.10+15:22
150  Henk WijnbergSalland43.26minM45   11.120  5:243.09+15:30
151  Bill StegersVlissingen43.27minM40   11.116  5:243.09+15:31
152  Jurjen KampenBroekland Ov43.39minM45   11.065  5:253.07+15:43
153  Jannie de VriesDynamica43.45minV50   11.040  5:263.07+15:49
154  Jeroen DijkstraRotterdam43.50minMse   11.019  5:273.06+15:54
155  Suzanne GeschiereSint Laurens43.53minV45   11.006  5:273.06+15:57
156  Chris KeijzerNieuwe-Tonge43.54minM40   11.002  5:273.06+15:58
157  Karel van de GruiterDynamica44.18minM65   10.903  5:303.03+16:22
158  Hans JoosseMiddelburg44.20minM55   10.895  5:303.03+16:24
159  Hans HolwerdaRotterdam44.36minMse   10.830  5:323.01+16:40
160  Lisa ReimertRaalte44.56minVse   10.749  5:352.99+17:00
161  Danielle in t VeldOud-Beijerland45.01minV40   10.729  5:362.98+17:05
162  Adri van BavelOud Gastel45.07minM50   10.706  5:362.97+17:11
163  Ineke TempelaarDynamica45.07minV55   10.706  5:362.97+17:11
164  StruijsOosterhout45.09minM45   10.698  5:372.97+17:13
165  Liesbeth DorremanZierikzee45.10minV40   10.694  5:372.97+17:14
166  Cor van den BergeGoes45.17minM45   10.666  5:382.96+17:21
167  Jan GelukDelta Sport45.23minM60   10.643  5:382.96+17:27
168  Marieke van BelzenDynamica45.25minV40   10.635  5:392.95+17:29
169  Wiljan GeertsSalland45.30minM50   10.615  5:392.95+17:34
170  Rijk FiliusDynamica45.36minM55   10.592  5:402.94+17:40
171  Bart HoogenboomNoordwelle45.42minM65   10.569  5:412.94+17:46
172  Reynold van IperenKapelle-Biezelinge45.50minM40   10.538  5:422.93+17:54
173  Rob van der BeijlDelta Sport45.51minM45   10.534  5:422.93+17:55
174  Steffen HumerAV'5645.52minM45   10.531  5:422.93+17:56
175  Gertjan BakkerAV'5645.53minM40   10.527  5:422.92+17:57
176  Rob KouwenhovenHellevoetsluis45.54minM55   10.523  5:422.92+17:58
177  Ellie WesterweeleDynamica45.55minV60   10.519  5:422.92+17:59
178  Jan van HassentSommelsdijk45.57minM50   10.511  5:422.92+18:01
179  Joke de KosterDelta Sport46.01minV55   10.496  5:432.92+18:05
180  Wim OosseHaelen46.01minM50   10.496  5:432.92+18:05
181  Rini ZorgeBrouwershaven46.04minM50   10.485  5:432.91+18:08
182  Henk SandeeKamperland46.10minM65   10.462  5:442.91+18:14
183  Hugo PoortvlietDynamica46.24minM65   10.409  5:462.89+18:28
184  Aart van LuijkDynamica46.33minM55   10.376  5:472.88+18:37
185  Martijn de VisserArnemuiden46.43minM35   10.339  5:482.87+18:47
186  Inge MarchandBurgh-Haamstede46.44minV35   10.335  5:482.87+18:48
187  JaapJan KloetBurgh-Haamstede46.45minM45   10.332  5:482.87+18:49
188  Petra HogensteinBurgh-Haamstede46.45minV40   10.332  5:482.87+18:49
189  Ilse VerwijsDelta Sport46.46minVse   10.328  5:492.87+18:50
190  Astrid den HerderAV'5646.51minVse   10.309  5:492.86+18:55
191  Ron OltmansLeiden46.53minM45   10.302  5:492.86+18:57
192  Petra van BleijswijkRenesse46.54minV40   10.299  5:502.86+18:58
193  Marieke de HoopBurgh-Haamstede46.55minV35   10.295  5:502.86+18:59
194  Dignus LensenDynamica47.06minM55   10.255  5:512.85+19:10
195  J VaderDomburg47.16minM35   10.219  5:522.84+19:20
196  Arian de VisserMiddelburg47.20minMse   10.204  5:532.83+19:24
197  Peter van OosterhoutMade47.21minM55   10.201  5:532.83+19:25
198  Adri NoordijkeZierikzee47.38minM70   10.140  5:552.82+19:42
199  Rachel Starkey?47.42minV50   10.126  5:562.81+19:46
200  Jos FranckeVlissingen47.46minM55   10.112  5:562.81+19:50
201  Marijn KrootBurgh-Haamstede48.10minM40   10.028  5:592.79+20:14
202  Arjan KooleSerooskerke48.17minM35   10.003  6:002.78+20:21
203  John de VriezeZierikzee48.20minM40   9.993  6:002.78+20:24
204  Janet van de GriendVlissingen48.30minV40   9.959  6:012.77+20:34
205  Femke BeijerDelta Sport48.37minVse   9.935  6:022.76+20:41
206  Dick HartDelta Sport48.42minM50   9.918  6:032.75+20:46
207  Marcel DekkerZierikzee48.58minM45   9.864  6:052.74+21:02
208  Serge van den BosBurgh-Haamstede48.59minM35   9.860  6:052.74+21:03
209  René van DijkeNieuwerkerk49.00minM35   9.857  6:052.74+21:04
210  Arno van TrigtGoes49.05minV50   9.840  6:062.73+21:09
211  Jimmy KooleKamperland49.05minMse   9.840  6:062.73+21:09
212  Hans HolwerdaNieuwerkerk49.08minM60   9.830  6:062.73+21:12
213  Krista VoorhamDelta Sport49.08minV40   9.830  6:062.73+21:12
214  Ria MarchandBurgh-Haamstede49.09minV60   9.827  6:062.73+21:13
215  Kees KortleveAV'5649.29minM75   9.761  6:092.71+21:33
216  Rob WeeberDelta Sport49.48minM50   9.699  6:112.69+21:52
217  Nicky SherringtonDomburg49.50minV45   9.692  6:112.69+21:54
218  Catoo ViergeverDelta Sport49.51minV45   9.689  6:122.69+21:55
219  Sonja PoppeKamperland49.52minV45   9.686  6:122.69+21:56
220  Jan RooseGoes49.54minM60   9.679  6:122.69+21:58
221  Marjolein NijenkampSalland49.59minVse   9.663  6:132.68+22:03
222  Rob DuijmVlissingen49.59minM60   9.663  6:132.68+22:03
223  Herman KreeftGilze50.09minM65   9.631  6:142.68+22:13
224  Eveline ScheersDynamica50.13minV55   9.618  6:142.67+22:17
225  Marleen van SighemDelta Sport50.23minV45   9.587  6:162.66+22:27
226  Folkert CasimierZierikzee50.27minM55   9.574  6:162.66+22:31
227  Irene IJspelderDelta Sport50.41minV50   9.530  6:182.65+22:45
228  Henny de JongeDelta Sport51.03minV55   9.461  6:202.63+23:07
229  Walter in t VeldOud-Beijerland51.08minM50   9.446  6:212.62+23:12
230  Piet WijnsemaEnergie51.09minM60   9.443  6:212.62+23:13
231  Regina VerhageDynamica51.17minV45   9.418  6:222.62+23:21
232  Marjolein HaarmanSalland51.26minVse   9.391  6:232.61+23:30
233  Frank van RotterdamNoordgouwe51.27minM45   9.388  6:232.61+23:31
234  Ben de ManZierikzee51.30minM50   9.379  6:242.61+23:34
235  Huguette DeclercqDynamica52.11minV65   9.256  6:292.57+24:15
236  Cathrien PeetersDynamica52.20minV55   9.229  6:302.56+24:24
237  Theo KootstraWaarde52.21minM65   9.226  6:302.56+24:25
238  Rene BostelaarRotterdam52.34minMse   9.188  6:322.55+24:38
239  Eline VermeulenRotterdam52.35minVse   9.185  6:322.55+24:39
240  Lenie van KlevenVlissingen53.40minV55   9.000  6:402.50+25:44
241  Adriaan van de PlasseYerseke54.34minMse   8.852  6:472.46+26:38
242  Els van ZwietenDelta Sport54.37minV65   8.843  6:472.46+26:41
243  Bertus HaarmanSalland55.21minM55   8.726  6:532.42+27:25
244  Jos PielageMiddelburg57.56minM60   8.337  7:122.32+30:00
245  Wim van de PlasseYerseke1.02.39minM55   7.709  7:472.14+34:43
246  E H van de MaasSpark1.03.33minMse   7.600  7:542.11+35:37
247  Machiel SinkeKrabbendijke1.09.26minM65   6.956  8:381.93+41:30
Mannen: 194 (78.54%) => M35=19 - M40=22 - M45=29 - M50=40 - M55=17 - M60=19 - M65=7 - M70=3 - M75=1 - Mse=37
Vrouwen: 53 (21.46%) => V35=6 - V40=8 - V45=8 - V50=6 - V55=6 - V60=2 - V65=2 - Vse=15

Overzicht Top3, winnares en aantal deelnemers van aanwezige edities

JaarWinnaarTijd2eTijd 3eTijdWinnaresTijd#

8.25 km

2019Tim van den Broeke28:25Tim Pleijte28:31Yunis Stitan29:05Monica Sanderse34:27262

8.4 km

2018Aggrey Agaba28:25Tim Pleijte29:01Erwin Harmes29:30Diane van Es33:11230

8.25 km

2017Hamid El Mouaziz27:51Tim van den Broeke27:56Aggrey Agaba28:08Anjolie Engels34:52314
2016Tim Pleijte28:15Tim van den Broeke28:41Martijn de Kok29:30Anjolie Engels34:49216

8.05 km

2015Tim Pleijte27:48Tommy Staal28:00Michel van der Klein29:06Rose Enthoven-Tanui34:12215
2014Bart van Nunen27:56Ruben Scheurwater27:59Tim Pleijte28:11Laurey van den Berge33:04227
2013Tommy Staal27:49Tim Pleijte28:15Lars Gerritsen28:32Laurey van den Berge32:35240
2012Tommy Staal28:27Mike Barsaiyan28:36Jorijn de Mare28:59Abigale Regan34:42208
2011Tim Pleijte27:56Ruben Scheurwater27:57Pascal van Troost28:40Anjolie Engels32:50247
2010Wim Nieuwkerk29:19Pascal van Troost29:31Patrick Tas30:31Anjolie Engels34:13186
2009Wim Nieuwkerk29:34Michel Schrier30:06Jeroen van Dijke30:31Marianne de Kok37:31193
2008Michel van der Klein28:27Pascal van Troost28:47Joost de Klerk29:24Leonie Ton37:50206
2007Wim Padmos29:58Niels Koole30:07Michel Schrier30:19Leonie Ton36:49185
2006Kevin de Pagter30:15Robbert-Jan de Graaf30:24Coos van Buuren30:41Wendy van de Spijker35:43185
2005Danny in 't Veen29:48Hans van Beek30:00Arjan Beije30:19Andere afstand96
2004Jawad Bouazzaoui28:21Michel van der Klein28:22Arjan Beije29:53Andere afstand92
2003Yassine Abatourab28:29Michel van der Klein28:58Jawad Bouazzaoui29:16Andere afstand108
2002Said Kanfaoui28:55Ruben Scheurwater29:07Jaco Luijendijk29:35Andere afstand44

9 km

2001Eelco de Voogt30:18Maurice van Veldhoven30:34Noel Keijsers30:57Andere afstand48

8.05 km

2000Eelco de Voogt28:27Danny in 't Veen28:39Jeroen Punt29:03Andere afstand21
1999John Vermeule28:29Maurice van Veldhoven28:44Jaap de Knegt28:50Andere afstand170
1998John Vermeule28:06Jeroen Punt28:39Jan-Willem Schaar28:42Andere afstand166

Snelheid en tempo zijn berekend op de vermelde afstand. Bij een onjuiste afstand wijken deze uiteraard af!

Fouten melden via info@atletiekzeeland.nl Categorie fout? Mail dan geboortedatum. (geldt alleen voor Zeeuwen)

De server had 0.536 seconden nodig om deze lijst met 247 prestaties samen te stellen.

Terug naar boven


 
Recente Zeeuwse prestaties meer prestaties
01-08: Baanwedstrijd Vught (2)
3000 m Bezuayehu Petersen (PR 8.51.67)8.52.08  JoA
1500 m Tim van den Broeke (PR 3.44.09)3.46.73  Mse
26-07: Track Running Dongen (5)
5000 m Floris Willeboordse (PR)14.51.09  Mse
5000 m Ad Sluijter (debuut)16.01.85  M35
5000 m Chris Steenbakker (debuut)17.19.68  Mse
1500 m Bezuayehu Petersen (PR 4.04.90)4.08.19  JoA
400 m Jasper Zuidhof (PR 53.38)53.74  Mse
19-07: Testrun Nijmegen (1)
18-07: Testwedstrijd Nijmegen (1)
18-07: 2e Track Meeting Utrecht (6)
17-07: Nijmeegse Loopwedstrijd Nijmegen (1)
05-07: Stratenloop Zele (6)
04-07: Testwedstrijd Papendal (1)
Atletiek Zeeland © 2020